Nederland, Texas
Current Conditions -  °F | °C
As of 8:53 PM on Saturday 20 Dec 2014 (Local Time) from KBPT Reporting Station
Clear Clear  
Wind Chill: 52°   Ceiling: Unl
Heat Index: 52°   Visibility: 10mi
Dew Point: 47°   Wind: 10mph
Humidity: 83%   Direction: 30°NNE
Pressure: 30.17"   Gusts: NA
Location:  29.98°N, 93.99°W
Report Text: KBPT 210253Z 03009KT 10SM CLR 11/08 A3017 RMK AO2 SLP215 T01110083 51012
Loading
Personal Weather Stations






























Interactive Weather Map New forecast layout! Learn more

10-Day Weather Forecast

Advertisements
Track Severe Weather on mobile